sensor_id;sensor_type;location;lat;lon;timestamp;P1;durP1;ratioP1;P2;durP2;ratioP2
8331;SDS011;4203;48.144;14.118;2023-05-24T00:02:14;7.72;;;6.60;;
8331;SDS011;4203;48.144;14.118;2023-05-24T00:04:42;6.78;;;6.05;;
8331;SDS011;4203;48.144;14.118;2023-05-24T00:07:10;7.25;;;6.55;;
8331;SDS011;4203;48.144;14.118;2023-05-24T00:09:37;8.93;;;6.15;;
8331;SDS011;4203;48.144;14.118;2023-05-24T00:12:05;7.25;;;6.03;;
8331;SDS011;4203;48.144;14.118;2023-05-24T00:14:32;8.38;;;6.30;;
8331;SDS011;4203;48.144;14.118;2023-05-24T00:17:00;7.38;;;6.78;;
8331;SDS011;4203;48.144;14.118;2023-05-24T00:19:28;7.68;;;6.38;;
8331;SDS011;4203;48.144;14.118;2023-05-24T00:21:55;6.07;;;5.57;;
8331;SDS011;4203;48.144;14.118;2023-05-24T00:24:22;6.45;;;5.85;;
8331;SDS011;4203;48.144;14.118;2023-05-24T00:26:49;6.88;;;6.18;;
8331;SDS011;4203;48.144;14.118;2023-05-24T00:29:17;6.65;;;6.05;;
8331;SDS011;4203;48.144;14.118;2023-05-24T00:31:44;5.80;;;5.20;;
8331;SDS011;4203;48.144;14.118;2023-05-24T00:34:12;10.55;;;5.95;;
8331;SDS011;4203;48.144;14.118;2023-05-24T00:36:39;7.75;;;6.20;;
8331;SDS011;4203;48.144;14.118;2023-05-24T00:39:09;10.25;;;6.00;;
8331;SDS011;4203;48.144;14.118;2023-05-24T00:41:36;6.40;;;5.80;;
8331;SDS011;4203;48.144;14.118;2023-05-24T00:44:03;6.05;;;5.55;;
8331;SDS011;4203;48.144;14.118;2023-05-24T00:46:30;6.68;;;5.50;;
8331;SDS011;4203;48.144;14.118;2023-05-24T00:49:00;5.85;;;5.35;;
8331;SDS011;4203;48.144;14.118;2023-05-24T00:51:29;6.40;;;5.75;;
8331;SDS011;4203;48.144;14.118;2023-05-24T00:53:58;6.13;;;5.15;;
8331;SDS011;4203;48.144;14.118;2023-05-24T00:56:25;6.65;;;5.93;;
8331;SDS011;4203;48.144;14.118;2023-05-24T00:58:54;6.70;;;5.53;;
8331;SDS011;4203;48.144;14.118;2023-05-24T01:01:21;6.43;;;5.80;;
8331;SDS011;4203;48.144;14.118;2023-05-24T01:03:54;6.28;;;5.68;;
8331;SDS011;4203;48.144;14.118;2023-05-24T01:06:23;6.15;;;5.65;;
8331;SDS011;4203;48.144;14.118;2023-05-24T01:09:06;5.90;;;5.40;;
8331;SDS011;4203;48.144;14.118;2023-05-24T01:11:43;6.88;;;5.63;;
8331;SDS011;4203;48.144;14.118;2023-05-24T01:14:21;6.22;;;5.63;;
8331;SDS011;4203;48.144;14.118;2023-05-24T01:16:55;5.80;;;5.40;;
8331;SDS011;4203;48.144;14.118;2023-05-24T01:22:22;6.45;;;5.85;;
8331;SDS011;4203;48.144;14.118;2023-05-24T01:24:58;5.15;;;4.75;;
8331;SDS011;4203;48.144;14.118;2023-05-24T01:27:30;6.03;;;5.45;;
8331;SDS011;4203;48.144;14.118;2023-05-24T01:29:59;6.28;;;5.72;;
8331;SDS011;4203;48.144;14.118;2023-05-24T01:32:27;6.60;;;6.10;;
8331;SDS011;4203;48.144;14.118;2023-05-24T01:34:55;6.35;;;5.85;;
8331;SDS011;4203;48.144;14.118;2023-05-24T01:37:22;6.53;;;5.90;;
8331;SDS011;4203;48.144;14.118;2023-05-24T01:39:50;7.10;;;5.97;;
8331;SDS011;4203;48.144;14.118;2023-05-24T01:42:21;6.90;;;6.30;;
8331;SDS011;4203;48.144;14.118;2023-05-24T01:47:57;5.75;;;5.35;;
8331;SDS011;4203;48.144;14.118;2023-05-24T01:50:30;6.60;;;6.10;;
8331;SDS011;4203;48.144;14.118;2023-05-24T01:53:01;6.32;;;5.82;;
8331;SDS011;4203;48.144;14.118;2023-05-24T01:55:32;6.75;;;6.15;;
8331;SDS011;4203;48.144;14.118;2023-05-24T01:58:01;6.63;;;6.03;;
8331;SDS011;4203;48.144;14.118;2023-05-24T02:00:31;8.13;;;6.43;;
8331;SDS011;4203;48.144;14.118;2023-05-24T02:03:00;6.20;;;5.57;;
8331;SDS011;4203;48.144;14.118;2023-05-24T02:05:27;5.97;;;5.38;;
8331;SDS011;4203;48.144;14.118;2023-05-24T02:07:55;5.95;;;5.55;;
8331;SDS011;4203;48.144;14.118;2023-05-24T02:10:22;6.35;;;5.82;;
8331;SDS011;4203;48.144;14.118;2023-05-24T02:12:49;7.13;;;6.32;;
8331;SDS011;4203;48.144;14.118;2023-05-24T02:15:16;6.28;;;5.72;;
8331;SDS011;4203;48.144;14.118;2023-05-24T02:17:46;6.47;;;5.88;;
8331;SDS011;4203;48.144;14.118;2023-05-24T02:20:13;6.07;;;5.47;;
8331;SDS011;4203;48.144;14.118;2023-05-24T02:22:41;6.15;;;5.65;;
8331;SDS011;4203;48.144;14.118;2023-05-24T02:25:08;7.45;;;6.47;;
8331;SDS011;4203;48.144;14.118;2023-05-24T02:27:35;6.25;;;5.75;;
8331;SDS011;4203;48.144;14.118;2023-05-24T02:30:03;6.85;;;6.20;;
8331;SDS011;4203;48.144;14.118;2023-05-24T02:32:31;6.57;;;6.07;;
8331;SDS011;4203;48.144;14.118;2023-05-24T02:35:02;6.47;;;5.97;;
8331;SDS011;4203;48.144;14.118;2023-05-24T02:37:30;6.25;;;5.75;;
8331;SDS011;4203;48.144;14.118;2023-05-24T02:39:58;6.13;;;5.53;;
8331;SDS011;4203;48.144;14.118;2023-05-24T02:42:26;6.25;;;5.75;;
8331;SDS011;4203;48.144;14.118;2023-05-24T02:44:53;7.35;;;5.97;;
8331;SDS011;4203;48.144;14.118;2023-05-24T02:47:20;6.28;;;5.72;;
8331;SDS011;4203;48.144;14.118;2023-05-24T02:49:47;6.18;;;5.68;;
8331;SDS011;4203;48.144;14.118;2023-05-24T02:52:16;6.45;;;5.88;;
8331;SDS011;4203;48.144;14.118;2023-05-24T02:54:46;6.38;;;5.88;;
8331;SDS011;4203;48.144;14.118;2023-05-24T02:57:14;7.65;;;5.60;;
8331;SDS011;4203;48.144;14.118;2023-05-24T02:59:42;5.57;;;5.18;;
8331;SDS011;4203;48.144;14.118;2023-05-24T03:02:09;6.28;;;5.70;;
8331;SDS011;4203;48.144;14.118;2023-05-24T03:04:39;5.85;;;4.97;;
8331;SDS011;4203;48.144;14.118;2023-05-24T03:07:06;6.82;;;6.22;;
8331;SDS011;4203;48.144;14.118;2023-05-24T03:09:34;6.18;;;5.68;;
8331;SDS011;4203;48.144;14.118;2023-05-24T03:12:02;6.43;;;5.93;;
8331;SDS011;4203;48.144;14.118;2023-05-24T03:14:29;6.70;;;6.00;;
8331;SDS011;4203;48.144;14.118;2023-05-24T03:16:56;5.93;;;5.43;;
8331;SDS011;4203;48.144;14.118;2023-05-24T03:19:24;5.90;;;5.50;;
8331;SDS011;4203;48.144;14.118;2023-05-24T03:21:51;7.90;;;6.57;;
8331;SDS011;4203;48.144;14.118;2023-05-24T03:24:18;7.22;;;6.63;;
8331;SDS011;4203;48.144;14.118;2023-05-24T03:26:47;6.85;;;6.25;;
8331;SDS011;4203;48.144;14.118;2023-05-24T03:29:14;6.43;;;5.70;;
8331;SDS011;4203;48.144;14.118;2023-05-24T03:31:41;8.20;;;6.07;;
8331;SDS011;4203;48.144;14.118;2023-05-24T03:34:08;6.38;;;5.80;;
8331;SDS011;4203;48.144;14.118;2023-05-24T03:36:36;6.70;;;6.20;;
8331;SDS011;4203;48.144;14.118;2023-05-24T03:39:10;7.13;;;6.38;;
8331;SDS011;4203;48.144;14.118;2023-05-24T03:41:38;7.00;;;6.40;;
8331;SDS011;4203;48.144;14.118;2023-05-24T03:44:07;6.25;;;5.80;;
8331;SDS011;4203;48.144;14.118;2023-05-24T03:46:34;8.80;;;6.05;;
8331;SDS011;4203;48.144;14.118;2023-05-24T03:49:11;7.38;;;6.45;;
8331;SDS011;4203;48.144;14.118;2023-05-24T03:51:38;6.57;;;5.97;;
8331;SDS011;4203;48.144;14.118;2023-05-24T03:54:07;7.55;;;6.30;;
8331;SDS011;4203;48.144;14.118;2023-05-24T03:56:35;6.95;;;6.25;;
8331;SDS011;4203;48.144;14.118;2023-05-24T03:59:03;6.90;;;6.40;;
8331;SDS011;4203;48.144;14.118;2023-05-24T04:01:32;7.22;;;6.63;;
8331;SDS011;4203;48.144;14.118;2023-05-24T04:04:03;8.98;;;7.80;;
8331;SDS011;4203;48.144;14.118;2023-05-24T04:06:31;8.27;;;7.15;;
8331;SDS011;4203;48.144;14.118;2023-05-24T04:09:00;10.98;;;6.75;;
8331;SDS011;4203;48.144;14.118;2023-05-24T04:11:29;6.18;;;5.68;;
8331;SDS011;4203;48.144;14.118;2023-05-24T04:13:57;6.55;;;5.95;;
8331;SDS011;4203;48.144;14.118;2023-05-24T04:16:25;7.50;;;6.38;;
8331;SDS011;4203;48.144;14.118;2023-05-24T04:18:54;7.18;;;6.57;;
8331;SDS011;4203;48.144;14.118;2023-05-24T04:21:22;7.10;;;6.10;;
8331;SDS011;4203;48.144;14.118;2023-05-24T04:23:49;7.55;;;6.75;;
8331;SDS011;4203;48.144;14.118;2023-05-24T04:26:16;6.63;;;6.15;;
8331;SDS011;4203;48.144;14.118;2023-05-24T04:28:45;6.53;;;5.97;;
8331;SDS011;4203;48.144;14.118;2023-05-24T04:31:12;6.47;;;5.88;;
8331;SDS011;4203;48.144;14.118;2023-05-24T04:33:40;7.22;;;6.63;;
8331;SDS011;4203;48.144;14.118;2023-05-24T04:36:09;6.53;;;5.57;;
8331;SDS011;4203;48.144;14.118;2023-05-24T04:38:37;6.78;;;5.78;;
8331;SDS011;4203;48.144;14.118;2023-05-24T04:41:05;6.15;;;5.65;;
8331;SDS011;4203;48.144;14.118;2023-05-24T04:43:32;6.32;;;5.82;;
8331;SDS011;4203;48.144;14.118;2023-05-24T04:46:00;9.20;;;6.43;;
8331;SDS011;4203;48.144;14.118;2023-05-24T04:48:28;6.40;;;5.90;;
8331;SDS011;4203;48.144;14.118;2023-05-24T04:50:55;6.13;;;5.53;;
8331;SDS011;4203;48.144;14.118;2023-05-24T04:53:25;6.68;;;6.07;;
8331;SDS011;4203;48.144;14.118;2023-05-24T04:55:52;7.28;;;6.55;;
8331;SDS011;4203;48.144;14.118;2023-05-24T04:58:20;7.35;;;6.68;;
8331;SDS011;4203;48.144;14.118;2023-05-24T05:00:47;6.78;;;6.28;;
8331;SDS011;4203;48.144;14.118;2023-05-24T05:03:14;6.82;;;6.32;;
8331;SDS011;4203;48.144;14.118;2023-05-24T05:05:41;6.55;;;5.95;;
8331;SDS011;4203;48.144;14.118;2023-05-24T05:08:11;7.05;;;6.28;;
8331;SDS011;4203;48.144;14.118;2023-05-24T05:10:42;6.95;;;6.38;;
8331;SDS011;4203;48.144;14.118;2023-05-24T05:13:11;6.78;;;6.28;;
8331;SDS011;4203;48.144;14.118;2023-05-24T05:15:39;6.75;;;6.07;;
8331;SDS011;4203;48.144;14.118;2023-05-24T05:18:09;7.40;;;6.80;;
8331;SDS011;4203;48.144;14.118;2023-05-24T05:20:41;6.97;;;6.47;;
8331;SDS011;4203;48.144;14.118;2023-05-24T05:23:08;7.72;;;7.07;;
8331;SDS011;4203;48.144;14.118;2023-05-24T05:25:35;6.47;;;5.93;;
8331;SDS011;4203;48.144;14.118;2023-05-24T05:28:04;6.30;;;5.82;;
8331;SDS011;4203;48.144;14.118;2023-05-24T05:30:31;6.47;;;5.97;;
8331;SDS011;4203;48.144;14.118;2023-05-24T05:32:58;8.65;;;6.05;;
8331;SDS011;4203;48.144;14.118;2023-05-24T05:35:25;7.20;;;6.50;;
8331;SDS011;4203;48.144;14.118;2023-05-24T05:37:53;7.55;;;6.85;;
8331;SDS011;4203;48.144;14.118;2023-05-24T05:40:21;5.88;;;5.45;;
8331;SDS011;4203;48.144;14.118;2023-05-24T05:42:48;6.95;;;6.35;;
8331;SDS011;4203;48.144;14.118;2023-05-24T05:45:16;7.25;;;6.65;;
8331;SDS011;4203;48.144;14.118;2023-05-24T05:47:45;6.47;;;5.97;;
8331;SDS011;4203;48.144;14.118;2023-05-24T05:50:12;7.07;;;6.47;;
8331;SDS011;4203;48.144;14.118;2023-05-24T05:52:39;6.88;;;6.38;;
8331;SDS011;4203;48.144;14.118;2023-05-24T05:55:07;7.30;;;6.70;;
8331;SDS011;4203;48.144;14.118;2023-05-24T05:57:37;7.75;;;7.05;;
8331;SDS011;4203;48.144;14.118;2023-05-24T06:00:05;6.78;;;6.28;;
8331;SDS011;4203;48.144;14.118;2023-05-24T06:02:34;7.60;;;6.68;;
8331;SDS011;4203;48.144;14.118;2023-05-24T06:05:01;7.07;;;6.55;;
8331;SDS011;4203;48.144;14.118;2023-05-24T06:07:28;8.40;;;6.38;;
8331;SDS011;4203;48.144;14.118;2023-05-24T06:09:56;7.13;;;6.63;;
8331;SDS011;4203;48.144;14.118;2023-05-24T06:12:23;7.15;;;6.57;;
8331;SDS011;4203;48.144;14.118;2023-05-24T06:14:50;7.38;;;6.50;;
8331;SDS011;4203;48.144;14.118;2023-05-24T06:17:18;6.60;;;6.10;;
8331;SDS011;4203;48.144;14.118;2023-05-24T06:19:49;6.82;;;6.30;;
8331;SDS011;4203;48.144;14.118;2023-05-24T06:22:17;6.20;;;5.80;;
8331;SDS011;4203;48.144;14.118;2023-05-24T06:24:45;6.75;;;6.07;;
8331;SDS011;4203;48.144;14.118;2023-05-24T06:27:13;6.32;;;5.82;;
8331;SDS011;4203;48.144;14.118;2023-05-24T06:29:40;6.78;;;6.20;;
8331;SDS011;4203;48.144;14.118;2023-05-24T06:32:07;7.47;;;6.78;;
8331;SDS011;4203;48.144;14.118;2023-05-24T06:34:34;7.35;;;6.65;;
8331;SDS011;4203;48.144;14.118;2023-05-24T06:37:03;7.38;;;6.78;;
8331;SDS011;4203;48.144;14.118;2023-05-24T06:39:34;7.20;;;6.60;;
8331;SDS011;4203;48.144;14.118;2023-05-24T06:42:01;6.43;;;5.82;;
8331;SDS011;4203;48.144;14.118;2023-05-24T06:44:29;6.38;;;5.88;;
8331;SDS011;4203;48.144;14.118;2023-05-24T06:46:58;7.05;;;5.90;;
8331;SDS011;4203;48.144;14.118;2023-05-24T06:49:26;5.57;;;5.07;;
8331;SDS011;4203;48.144;14.118;2023-05-24T06:51:53;7.32;;;6.35;;
8331;SDS011;4203;48.144;14.118;2023-05-24T06:54:22;7.30;;;6.72;;
8331;SDS011;4203;48.144;14.118;2023-05-24T06:56:49;5.22;;;4.82;;
8331;SDS011;4203;48.144;14.118;2023-05-24T06:59:16;4.65;;;4.25;;
8331;SDS011;4203;48.144;14.118;2023-05-24T07:01:43;3.75;;;3.55;;
8331;SDS011;4203;48.144;14.118;2023-05-24T07:04:13;3.33;;;3.10;;
8331;SDS011;4203;48.144;14.118;2023-05-24T07:06:40;3.33;;;3.03;;
8331;SDS011;4203;48.144;14.118;2023-05-24T07:09:07;3.55;;;3.30;;
8331;SDS011;4203;48.144;14.118;2023-05-24T07:11:36;3.63;;;3.38;;
8331;SDS011;4203;48.144;14.118;2023-05-24T07:14:03;3.20;;;3.10;;
8331;SDS011;4203;48.144;14.118;2023-05-24T07:16:30;6.15;;;3.28;;
8331;SDS011;4203;48.144;14.118;2023-05-24T07:19:08;3.78;;;3.53;;
8331;SDS011;4203;48.144;14.118;2023-05-24T07:21:35;3.25;;;3.05;;
8331;SDS011;4203;48.144;14.118;2023-05-24T07:24:03;3.40;;;3.10;;
8331;SDS011;4203;48.144;14.118;2023-05-24T07:26:30;3.80;;;3.53;;
8331;SDS011;4203;48.144;14.118;2023-05-24T07:29:03;4.30;;;3.20;;
8331;SDS011;4203;48.144;14.118;2023-05-24T07:31:30;3.83;;;3.53;;
8331;SDS011;4203;48.144;14.118;2023-05-24T07:33:59;3.80;;;3.60;;
8331;SDS011;4203;48.144;14.118;2023-05-24T07:36:26;3.60;;;3.40;;
8331;SDS011;4203;48.144;14.118;2023-05-24T07:38:57;4.43;;;3.40;;
8331;SDS011;4203;48.144;14.118;2023-05-24T07:41:25;3.53;;;3.33;;
8331;SDS011;4203;48.144;14.118;2023-05-24T07:43:53;4.15;;;3.42;;
8331;SDS011;4203;48.144;14.118;2023-05-24T07:46:22;3.92;;;3.72;;
8331;SDS011;4203;48.144;14.118;2023-05-24T07:48:51;3.50;;;3.30;;
8331;SDS011;4203;48.144;14.118;2023-05-24T07:51:19;3.40;;;3.22;;
8331;SDS011;4203;48.144;14.118;2023-05-24T07:53:46;3.80;;;3.55;;
8331;SDS011;4203;48.144;14.118;2023-05-24T07:56:23;4.70;;;3.55;;
8331;SDS011;4203;48.144;14.118;2023-05-24T07:58:52;4.18;;;3.60;;
8331;SDS011;4203;48.144;14.118;2023-05-24T08:01:24;3.30;;;3.10;;
8331;SDS011;4203;48.144;14.118;2023-05-24T08:03:53;3.78;;;3.47;;
8331;SDS011;4203;48.144;14.118;2023-05-24T08:06:20;3.70;;;3.50;;
8331;SDS011;4203;48.144;14.118;2023-05-24T08:08:48;4.05;;;3.70;;
8331;SDS011;4203;48.144;14.118;2023-05-24T08:11:15;3.75;;;3.50;;
8331;SDS011;4203;48.144;14.118;2023-05-24T08:13:42;3.83;;;3.60;;
8331;SDS011;4203;48.144;14.118;2023-05-24T08:16:09;3.80;;;3.50;;
8331;SDS011;4203;48.144;14.118;2023-05-24T08:18:38;4.10;;;3.90;;
8331;SDS011;4203;48.144;14.118;2023-05-24T08:21:05;3.67;;;3.47;;
8331;SDS011;4203;48.144;14.118;2023-05-24T08:23:33;3.55;;;3.30;;
8331;SDS011;4203;48.144;14.118;2023-05-24T08:26:00;3.97;;;3.70;;
8331;SDS011;4203;48.144;14.118;2023-05-24T08:28:27;4.40;;;4.10;;
8331;SDS011;4203;48.144;14.118;2023-05-24T08:30:55;5.65;;;3.80;;
8331;SDS011;4203;48.144;14.118;2023-05-24T08:33:22;5.18;;;4.57;;
8331;SDS011;4203;48.144;14.118;2023-05-24T08:35:51;5.05;;;4.65;;
8331;SDS011;4203;48.144;14.118;2023-05-24T08:38:18;4.88;;;4.40;;
8331;SDS011;4203;48.144;14.118;2023-05-24T08:40:46;5.38;;;4.97;;
8331;SDS011;4203;48.144;14.118;2023-05-24T08:43:13;4.70;;;4.40;;
8331;SDS011;4203;48.144;14.118;2023-05-24T08:45:40;4.80;;;4.45;;
8331;SDS011;4203;48.144;14.118;2023-05-24T08:48:10;5.63;;;5.22;;
8331;SDS011;4203;48.144;14.118;2023-05-24T08:50:38;5.88;;;5.38;;
8331;SDS011;4203;48.144;14.118;2023-05-24T08:53:06;4.85;;;4.55;;
8331;SDS011;4203;48.144;14.118;2023-05-24T08:55:35;5.82;;;5.07;;
8331;SDS011;4203;48.144;14.118;2023-05-24T08:58:03;5.95;;;5.45;;
8331;SDS011;4203;48.144;14.118;2023-05-24T09:00:31;6.47;;;5.65;;
8331;SDS011;4203;48.144;14.118;2023-05-24T09:02:58;6.25;;;5.78;;
8331;SDS011;4203;48.144;14.118;2023-05-24T09:05:27;6.30;;;5.80;;
8331;SDS011;4203;48.144;14.118;2023-05-24T09:07:55;5.82;;;5.43;;
8331;SDS011;4203;48.144;14.118;2023-05-24T09:10:26;5.80;;;5.40;;
8331;SDS011;4203;48.144;14.118;2023-05-24T09:12:55;5.50;;;5.10;;
8331;SDS011;4203;48.144;14.118;2023-05-24T09:15:23;5.75;;;5.35;;
8331;SDS011;4203;48.144;14.118;2023-05-24T09:17:50;5.95;;;5.40;;
8331;SDS011;4203;48.144;14.118;2023-05-24T09:20:18;5.32;;;5.00;;
8331;SDS011;4203;48.144;14.118;2023-05-24T09:22:51;5.15;;;4.80;;
8331;SDS011;4203;48.144;14.118;2023-05-24T09:25:19;6.40;;;5.80;;
8331;SDS011;4203;48.144;14.118;2023-05-24T09:27:51;6.00;;;5.60;;
8331;SDS011;4203;48.144;14.118;2023-05-24T09:30:19;5.55;;;5.15;;
8331;SDS011;4203;48.144;14.118;2023-05-24T09:32:53;5.38;;;5.03;;
8331;SDS011;4203;48.144;14.118;2023-05-24T09:35:21;5.20;;;4.90;;
8331;SDS011;4203;48.144;14.118;2023-05-24T09:37:52;5.55;;;5.15;;
8331;SDS011;4203;48.144;14.118;2023-05-24T09:40:22;5.35;;;4.97;;
8331;SDS011;4203;48.144;14.118;2023-05-24T09:43:02;5.40;;;5.00;;
8331;SDS011;4203;48.144;14.118;2023-05-24T09:45:31;5.13;;;4.78;;
8331;SDS011;4203;48.144;14.118;2023-05-24T09:47:58;5.30;;;4.82;;
8331;SDS011;4203;48.144;14.118;2023-05-24T09:50:29;5.13;;;4.72;;
8331;SDS011;4203;48.144;14.118;2023-05-24T09:52:56;5.40;;;5.00;;
8331;SDS011;4203;48.144;14.118;2023-05-24T09:55:23;5.68;;;5.28;;
8331;SDS011;4203;48.144;14.118;2023-05-24T09:58:02;5.05;;;4.68;;
8331;SDS011;4203;48.144;14.118;2023-05-24T10:00:32;6.00;;;5.60;;
8331;SDS011;4203;48.144;14.118;2023-05-24T10:03:01;5.45;;;5.03;;
8331;SDS011;4203;48.144;14.118;2023-05-24T10:05:30;5.07;;;4.78;;
8331;SDS011;4203;48.144;14.118;2023-05-24T10:07:58;5.20;;;4.80;;
8331;SDS011;4203;48.144;14.118;2023-05-24T10:10:26;6.05;;;4.53;;
8331;SDS011;4203;48.144;14.118;2023-05-24T10:12:54;5.10;;;4.80;;
8331;SDS011;4203;48.144;14.118;2023-05-24T10:15:23;5.78;;;5.38;;
8331;SDS011;4203;48.144;14.118;2023-05-24T10:17:52;5.45;;;5.05;;
8331;SDS011;4203;48.144;14.118;2023-05-24T10:20:20;5.40;;;4.95;;
8331;SDS011;4203;48.144;14.118;2023-05-24T10:22:50;6.28;;;5.57;;
8331;SDS011;4203;48.144;14.118;2023-05-24T10:25:19;4.95;;;4.57;;
8331;SDS011;4203;48.144;14.118;2023-05-24T10:27:50;4.82;;;4.43;;
8331;SDS011;4203;48.144;14.118;2023-05-24T10:30:21;5.75;;;5.35;;
8331;SDS011;4203;48.144;14.118;2023-05-24T10:32:56;5.75;;;5.35;;
8331;SDS011;4203;48.144;14.118;2023-05-24T10:35:25;5.95;;;5.45;;
8331;SDS011;4203;48.144;14.118;2023-05-24T10:37:53;5.18;;;4.78;;
8331;SDS011;4203;48.144;14.118;2023-05-24T10:40:21;5.13;;;4.72;;
8331;SDS011;4203;48.144;14.118;2023-05-24T10:42:50;5.80;;;5.40;;
8331;SDS011;4203;48.144;14.118;2023-05-24T10:45:30;6.65;;;6.05;;
8331;SDS011;4203;48.144;14.118;2023-05-24T10:48:00;6.35;;;5.80;;
8331;SDS011;4203;48.144;14.118;2023-05-24T10:50:33;6.07;;;5.60;;
8331;SDS011;4203;48.144;14.118;2023-05-24T10:53:12;6.03;;;5.53;;
8331;SDS011;4203;48.144;14.118;2023-05-24T10:55:53;6.63;;;6.05;;
8331;SDS011;4203;48.144;14.118;2023-05-24T10:58:22;5.88;;;5.47;;
8331;SDS011;4203;48.144;14.118;2023-05-24T11:00:56;6.03;;;5.53;;
8331;SDS011;4203;48.144;14.118;2023-05-24T11:03:23;9.13;;;5.65;;
8331;SDS011;4203;48.144;14.118;2023-05-24T11:05:51;5.90;;;5.50;;
8331;SDS011;4203;48.144;14.118;2023-05-24T11:08:23;6.30;;;5.80;;
8331;SDS011;4203;48.144;14.118;2023-05-24T11:11:00;6.43;;;5.97;;
8331;SDS011;4203;48.144;14.118;2023-05-24T11:13:29;6.97;;;6.28;;
8331;SDS011;4203;48.144;14.118;2023-05-24T11:15:59;6.55;;;5.97;;
8331;SDS011;4203;48.144;14.118;2023-05-24T11:18:28;6.38;;;5.93;;
8331;SDS011;4203;48.144;14.118;2023-05-24T11:20:55;6.70;;;6.10;;
8331;SDS011;4203;48.144;14.118;2023-05-24T11:23:25;6.57;;;6.07;;
8331;SDS011;4203;48.144;14.118;2023-05-24T11:25:54;6.57;;;6.07;;
8331;SDS011;4203;48.144;14.118;2023-05-24T11:28:31;7.00;;;6.50;;
8331;SDS011;4203;48.144;14.118;2023-05-24T11:31:07;8.43;;;6.32;;
8331;SDS011;4203;48.144;14.118;2023-05-24T11:33:39;6.40;;;5.93;;
8331;SDS011;4203;48.144;14.118;2023-05-24T11:36:07;6.15;;;5.60;;
8331;SDS011;4203;48.144;14.118;2023-05-24T11:38:36;6.22;;;5.72;;
8331;SDS011;4203;48.144;14.118;2023-05-24T11:41:03;6.25;;;5.70;;
8331;SDS011;4203;48.144;14.118;2023-05-24T11:43:31;5.60;;;5.10;;
8331;SDS011;4203;48.144;14.118;2023-05-24T11:45:58;5.90;;;5.50;;
8331;SDS011;4203;48.144;14.118;2023-05-24T11:48:28;5.60;;;5.20;;
8331;SDS011;4203;48.144;14.118;2023-05-24T11:50:55;6.10;;;5.63;;
8331;SDS011;4203;48.144;14.118;2023-05-24T11:53:24;8.05;;;5.70;;
8331;SDS011;4203;48.144;14.118;2023-05-24T11:55:51;6.32;;;5.82;;
8331;SDS011;4203;48.144;14.118;2023-05-24T11:58:21;7.18;;;6.57;;
8331;SDS011;4203;48.144;14.118;2023-05-24T12:00:49;8.13;;;6.78;;
8331;SDS011;4203;48.144;14.118;2023-05-24T12:03:17;6.88;;;6.35;;
8331;SDS011;4203;48.144;14.118;2023-05-24T12:05:45;7.20;;;6.68;;
8331;SDS011;4203;48.144;14.118;2023-05-24T12:08:13;6.40;;;5.90;;
8331;SDS011;4203;48.144;14.118;2023-05-24T12:10:41;6.18;;;5.68;;
8331;SDS011;4203;48.144;14.118;2023-05-24T12:13:17;6.50;;;5.97;;
8331;SDS011;4203;48.144;14.118;2023-05-24T12:15:48;6.80;;;6.20;;
8331;SDS011;4203;48.144;14.118;2023-05-24T12:18:17;6.30;;;5.78;;
8331;SDS011;4203;48.144;14.118;2023-05-24T12:20:47;6.80;;;6.30;;
8331;SDS011;4203;48.144;14.118;2023-05-24T12:23:14;7.20;;;6.60;;
8331;SDS011;4203;48.144;14.118;2023-05-24T12:25:42;5.90;;;5.50;;
8331;SDS011;4203;48.144;14.118;2023-05-24T12:28:09;6.13;;;5.63;;
8331;SDS011;4203;48.144;14.118;2023-05-24T12:30:37;5.95;;;5.43;;
8331;SDS011;4203;48.144;14.118;2023-05-24T12:33:07;5.82;;;5.43;;
8331;SDS011;4203;48.144;14.118;2023-05-24T12:35:35;5.85;;;5.35;;
8331;SDS011;4203;48.144;14.118;2023-05-24T12:38:06;5.60;;;5.20;;
8331;SDS011;4203;48.144;14.118;2023-05-24T12:40:34;5.18;;;4.88;;
8331;SDS011;4203;48.144;14.118;2023-05-24T12:43:02;5.55;;;5.15;;
8331;SDS011;4203;48.144;14.118;2023-05-24T12:45:30;5.88;;;5.35;;
8331;SDS011;4203;48.144;14.118;2023-05-24T12:47:58;6.40;;;5.80;;
8331;SDS011;4203;48.144;14.118;2023-05-24T12:50:26;6.30;;;5.80;;
8331;SDS011;4203;48.144;14.118;2023-05-24T12:52:55;6.10;;;5.53;;
8331;SDS011;4203;48.144;14.118;2023-05-24T12:55:24;5.78;;;5.28;;
8331;SDS011;4203;48.144;14.118;2023-05-24T12:57:52;4.97;;;4.68;;
8331;SDS011;4203;48.144;14.118;2023-05-24T13:00:20;5.18;;;4.88;;
8331;SDS011;4203;48.144;14.118;2023-05-24T13:02:51;5.28;;;4.88;;
8331;SDS011;4203;48.144;14.118;2023-05-24T13:05:20;6.00;;;5.40;;
8331;SDS011;4203;48.144;14.118;2023-05-24T13:07:48;5.88;;;5.32;;
8331;SDS011;4203;48.144;14.118;2023-05-24T13:10:16;5.57;;;5.18;;
8331;SDS011;4203;48.144;14.118;2023-05-24T13:12:45;6.25;;;5.75;;
8331;SDS011;4203;48.144;14.118;2023-05-24T13:15:12;5.85;;;5.40;;
8331;SDS011;4203;48.144;14.118;2023-05-24T13:17:39;6.15;;;5.65;;
8331;SDS011;4203;48.144;14.118;2023-05-24T13:20:07;6.25;;;5.85;;
8331;SDS011;4203;48.144;14.118;2023-05-24T13:22:36;6.10;;;5.70;;
8331;SDS011;4203;48.144;14.118;2023-05-24T13:25:05;6.28;;;5.80;;
8331;SDS011;4203;48.144;14.118;2023-05-24T13:27:33;6.20;;;5.60;;
8331;SDS011;4203;48.144;14.118;2023-05-24T13:30:02;6.05;;;5.65;;
8331;SDS011;4203;48.144;14.118;2023-05-24T13:32:31;5.72;;;5.22;;
8331;SDS011;4203;48.144;14.118;2023-05-24T13:34:58;5.95;;;5.45;;
8331;SDS011;4203;48.144;14.118;2023-05-24T13:37:26;6.32;;;5.82;;
8331;SDS011;4203;48.144;14.118;2023-05-24T13:39:53;5.90;;;5.43;;
8331;SDS011;4203;48.144;14.118;2023-05-24T13:42:20;6.35;;;5.85;;
8331;SDS011;4203;48.144;14.118;2023-05-24T13:44:47;5.57;;;5.18;;
8331;SDS011;4203;48.144;14.118;2023-05-24T13:47:16;6.70;;;5.32;;
8331;SDS011;4203;48.144;14.118;2023-05-24T13:49:44;5.70;;;5.30;;
8331;SDS011;4203;48.144;14.118;2023-05-24T13:52:12;6.30;;;5.78;;
8331;SDS011;4203;48.144;14.118;2023-05-24T13:54:39;6.57;;;6.07;;
8331;SDS011;4203;48.144;14.118;2023-05-24T13:57:06;5.97;;;5.50;;
8331;SDS011;4203;48.144;14.118;2023-05-24T13:59:33;5.57;;;5.18;;
8331;SDS011;4203;48.144;14.118;2023-05-24T14:02:00;4.70;;;4.40;;
8331;SDS011;4203;48.144;14.118;2023-05-24T14:04:29;5.60;;;5.20;;
8331;SDS011;4203;48.144;14.118;2023-05-24T14:06:56;5.50;;;5.10;;
8331;SDS011;4203;48.144;14.118;2023-05-24T14:09:23;5.80;;;4.80;;
8331;SDS011;4203;48.144;14.118;2023-05-24T14:11:51;5.40;;;5.00;;
8331;SDS011;4203;48.144;14.118;2023-05-24T14:14:18;5.88;;;5.47;;
8331;SDS011;4203;48.144;14.118;2023-05-24T14:16:45;5.68;;;5.28;;
8331;SDS011;4203;48.144;14.118;2023-05-24T14:19:16;5.10;;;4.80;;
8331;SDS011;4203;48.144;14.118;2023-05-24T14:21:44;5.65;;;4.85;;
8331;SDS011;4203;48.144;14.118;2023-05-24T14:24:11;5.53;;;5.00;;
8331;SDS011;4203;48.144;14.118;2023-05-24T14:26:39;6.10;;;5.10;;
8331;SDS011;4203;48.144;14.118;2023-05-24T14:29:06;5.50;;;5.07;;
8331;SDS011;4203;48.144;14.118;2023-05-24T14:31:33;5.63;;;5.18;;
8331;SDS011;4203;48.144;14.118;2023-05-24T14:34:06;5.25;;;4.78;;
8331;SDS011;4203;48.144;14.118;2023-05-24T14:36:35;7.72;;;5.43;;
8331;SDS011;4203;48.144;14.118;2023-05-24T14:39:04;5.80;;;5.20;;
8331;SDS011;4203;48.144;14.118;2023-05-24T14:41:32;5.90;;;5.50;;
8331;SDS011;4203;48.144;14.118;2023-05-24T14:43:59;5.30;;;4.90;;
8331;SDS011;4203;48.144;14.118;2023-05-24T14:46:26;6.82;;;5.30;;
8331;SDS011;4203;48.144;14.118;2023-05-24T14:48:53;5.80;;;5.30;;
8331;SDS011;4203;48.144;14.118;2023-05-24T14:51:21;5.78;;;4.97;;
8331;SDS011;4203;48.144;14.118;2023-05-24T14:53:48;6.70;;;6.10;;
8331;SDS011;4203;48.144;14.118;2023-05-24T14:56:17;6.75;;;5.82;;
8331;SDS011;4203;48.144;14.118;2023-05-24T14:58:44;5.72;;;5.28;;
8331;SDS011;4203;48.144;14.118;2023-05-24T15:01:11;5.85;;;5.35;;
8331;SDS011;4203;48.144;14.118;2023-05-24T15:03:38;6.05;;;5.63;;
8331;SDS011;4203;48.144;14.118;2023-05-24T15:06:06;7.38;;;6.22;;
8331;SDS011;4203;48.144;14.118;2023-05-24T15:08:33;6.95;;;6.43;;
8331;SDS011;4203;48.144;14.118;2023-05-24T15:11:00;6.55;;;5.95;;
8331;SDS011;4203;48.144;14.118;2023-05-24T15:13:30;6.47;;;5.85;;
8331;SDS011;4203;48.144;14.118;2023-05-24T15:15:57;6.32;;;5.82;;